sensor_id;sensor_type;location;lat;lon;timestamp;pressure;altitude;pressure_sealevel;temperature;humidity
76074;BME280;64776;42.636;24.358;2022-12-29T00:02:34;90970.06;;;1.29;81.75
76074;BME280;64776;42.636;24.358;2022-12-29T00:05:35;90965.09;;;1.34;81.25
76074;BME280;64776;42.636;24.358;2022-12-29T00:08:37;90979.75;;;1.35;81.54
76074;BME280;64776;42.636;24.358;2022-12-29T00:11:38;90981.91;;;1.40;80.80
76074;BME280;64776;42.636;24.358;2022-12-29T00:14:38;90973.38;;;1.33;81.25
76074;BME280;64776;42.636;24.358;2022-12-29T00:17:39;90972.28;;;1.30;81.54
76074;BME280;64776;42.636;24.358;2022-12-29T00:20:40;90969.31;;;1.28;81.83
76074;BME280;64776;42.636;24.358;2022-12-29T00:23:42;90977.63;;;1.23;82.06
76074;BME280;64776;42.636;24.358;2022-12-29T00:26:43;90972.41;;;1.20;82.17
76074;BME280;64776;42.636;24.358;2022-12-29T00:29:44;90971.75;;;1.12;82.40
76074;BME280;64776;42.636;24.358;2022-12-29T00:32:44;90969.97;;;1.02;82.66
76074;BME280;64776;42.636;24.358;2022-12-29T00:35:50;90980.03;;;1.07;82.27
76074;BME280;64776;42.636;24.358;2022-12-29T00:38:59;90982.66;;;1.11;82.34
76074;BME280;64776;42.636;24.358;2022-12-29T00:42:03;90985.19;;;1.18;82.80
76074;BME280;64776;42.636;24.358;2022-12-29T00:45:05;90992.69;;;1.19;82.10
76074;BME280;64776;42.636;24.358;2022-12-29T00:48:06;90992.69;;;1.19;82.36
76074;BME280;64776;42.636;24.358;2022-12-29T00:51:07;90992.78;;;1.12;82.59
76074;BME280;64776;42.636;24.358;2022-12-29T00:54:09;90992.78;;;1.12;82.43
76074;BME280;64776;42.636;24.358;2022-12-29T00:57:11;90991.25;;;1.15;82.53
76074;BME280;64776;42.636;24.358;2022-12-29T01:00:12;90990.75;;;0.90;82.97
76074;BME280;64776;42.636;24.358;2022-12-29T01:03:13;90986.88;;;1.01;82.47
76074;BME280;64776;42.636;24.358;2022-12-29T01:06:14;90983.53;;;0.97;82.78
76074;BME280;64776;42.636;24.358;2022-12-29T01:09:17;90987.03;;;0.87;82.78
76074;BME280;64776;42.636;24.358;2022-12-29T01:12:18;90985.19;;;0.84;82.84
76074;BME280;64776;42.636;24.358;2022-12-29T01:15:19;90978.06;;;0.81;82.44
76074;BME280;64776;42.636;24.358;2022-12-29T01:18:21;90973.56;;;0.81;82.63
76074;BME280;64776;42.636;24.358;2022-12-29T01:21:21;90972.81;;;0.81;82.60
76074;BME280;64776;42.636;24.358;2022-12-29T01:24:24;90975.38;;;0.88;81.96
76074;BME280;64776;42.636;24.358;2022-12-29T01:27:25;90967.53;;;0.84;81.74
76074;BME280;64776;42.636;24.358;2022-12-29T01:30:26;90963.84;;;0.78;81.92
76074;BME280;64776;42.636;24.358;2022-12-29T01:33:27;90966.25;;;0.66;81.50
76074;BME280;64776;42.636;24.358;2022-12-29T01:36:28;90957.97;;;0.64;81.53
76074;BME280;64776;42.636;24.358;2022-12-29T01:39:30;90960.59;;;0.64;81.92
76074;BME280;64776;42.636;24.358;2022-12-29T01:42:31;90960.25;;;0.62;81.87
76074;BME280;64776;42.636;24.358;2022-12-29T01:45:31;90958.72;;;0.64;81.62
76074;BME280;64776;42.636;24.358;2022-12-29T01:48:32;90946.75;;;0.60;81.43
76074;BME280;64776;42.636;24.358;2022-12-29T01:51:37;90943.13;;;0.50;81.61
76074;BME280;64776;42.636;24.358;2022-12-29T01:54:42;90943.88;;;0.51;81.34
76074;BME280;64776;42.636;24.358;2022-12-29T01:57:49;90937.66;;;0.34;81.87
76074;BME280;64776;42.636;24.358;2022-12-29T02:00:51;90938.66;;;0.44;82.00
76074;BME280;64776;42.636;24.358;2022-12-29T02:03:52;90928.13;;;0.51;82.51
76074;BME280;64776;42.636;24.358;2022-12-29T02:06:56;90928.06;;;0.54;82.31
76074;BME280;64776;42.636;24.358;2022-12-29T02:10:00;90926.16;;;0.58;82.32
76074;BME280;64776;42.636;24.358;2022-12-29T02:13:02;90923.94;;;0.57;82.57
76074;BME280;64776;42.636;24.358;2022-12-29T02:16:14;90933.38;;;0.51;82.42
76074;BME280;64776;42.636;24.358;2022-12-29T02:23:16;90936.50;;;0.35;83.07
76074;BME280;64776;42.636;24.358;2022-12-29T02:30:09;90931.72;;;0.23;83.56
76074;BME280;64776;42.636;24.358;2022-12-29T02:33:23;90929.03;;;0.34;83.35
76074;BME280;64776;42.636;24.358;2022-12-29T02:36:34;90926.03;;;0.32;84.14
76074;BME280;64776;42.636;24.358;2022-12-29T02:39:42;90920.06;;;0.28;83.74
76074;BME280;64776;42.636;24.358;2022-12-29T02:42:51;90917.81;;;0.30;83.56
76074;BME280;64776;42.636;24.358;2022-12-29T02:45:58;90918.25;;;0.25;82.89
76074;BME280;64776;42.636;24.358;2022-12-29T02:49:08;90917.88;;;0.23;83.32
76074;BME280;64776;42.636;24.358;2022-12-29T02:52:14;90919.41;;;0.17;83.56
76074;BME280;64776;42.636;24.358;2022-12-29T02:55:17;90913.31;;;0.30;83.85
76074;BME280;64776;42.636;24.358;2022-12-29T02:58:19;90914.16;;;0.17;83.26
76074;BME280;64776;42.636;24.358;2022-12-29T03:01:30;90911.19;;;0.15;83.83
76074;BME280;64776;42.636;24.358;2022-12-29T03:04:36;90914.97;;;0.14;83.79
76074;BME280;64776;42.636;24.358;2022-12-29T03:07:45;90912.03;;;0.05;83.35
76074;BME280;64776;42.636;24.358;2022-12-29T03:10:53;90908.28;;;0.06;83.96
76074;BME280;64776;42.636;24.358;2022-12-29T03:14:02;90908.41;;;-0.09;83.68
76074;BME280;64776;42.636;24.358;2022-12-29T03:17:14;90899.81;;;-0.16;84.36
76074;BME280;64776;42.636;24.358;2022-12-29T03:20:20;90900.19;;;-0.11;83.81
76074;BME280;64776;42.636;24.358;2022-12-29T03:23:24;90907.69;;;-0.13;83.07
76074;BME280;64776;42.636;24.358;2022-12-29T03:26:27;90906.97;;;-0.17;83.91
76074;BME280;64776;42.636;24.358;2022-12-29T03:29:30;90903.16;;;-0.09;83.95
76074;BME280;64776;42.636;24.358;2022-12-29T03:32:36;90908.47;;;-0.19;83.76
76074;BME280;64776;42.636;24.358;2022-12-29T03:35:42;90908.03;;;-0.11;83.71
76074;BME280;64776;42.636;24.358;2022-12-29T03:38:46;90908.75;;;-0.07;83.39
76074;BME280;64776;42.636;24.358;2022-12-29T03:41:50;90903.91;;;-0.12;83.02
76074;BME280;64776;42.636;24.358;2022-12-29T03:44:56;90910.66;;;-0.11;83.49
76074;BME280;64776;42.636;24.358;2022-12-29T03:47:57;90914.41;;;-0.12;83.55
76074;BME280;64776;42.636;24.358;2022-12-29T03:50:59;90914.91;;;-0.31;83.81
76074;BME280;64776;42.636;24.358;2022-12-29T03:54:00;90913.94;;;-0.51;83.49
76074;BME280;64776;42.636;24.358;2022-12-29T03:57:00;90916.88;;;-0.42;83.53
76074;BME280;64776;42.636;24.358;2022-12-29T04:00:01;90913.78;;;-0.30;83.17
76074;BME280;64776;42.636;24.358;2022-12-29T04:03:02;90907.03;;;-0.31;83.20
76074;BME280;64776;42.636;24.358;2022-12-29T04:06:05;90907.03;;;-0.31;82.78
76074;BME280;64776;42.636;24.358;2022-12-29T04:09:06;90908.97;;;-0.38;83.30
76074;BME280;64776;42.636;24.358;2022-12-29T04:12:07;90916.09;;;-0.39;82.58
76074;BME280;64776;42.636;24.358;2022-12-29T04:15:08;90916.88;;;-0.42;83.08
76074;BME280;64776;42.636;24.358;2022-12-29T04:18:09;90913.44;;;-0.32;83.23
76074;BME280;64776;42.636;24.358;2022-12-29T04:21:12;90912.28;;;-0.31;82.71
76074;BME280;64776;42.636;24.358;2022-12-29T04:24:13;90919.78;;;-0.33;82.65
76074;BME280;64776;42.636;24.358;2022-12-29T04:27:14;90916.50;;;-0.40;82.63
76074;BME280;64776;42.636;24.358;2022-12-29T04:30:15;90924.34;;;-0.40;83.45
76074;BME280;64776;42.636;24.358;2022-12-29T04:33:16;90924.41;;;-0.51;84.29
76074;BME280;64776;42.636;24.358;2022-12-29T04:36:18;90926.63;;;-0.46;83.80
76074;BME280;64776;42.636;24.358;2022-12-29T04:39:19;90922.88;;;-0.41;83.12
76074;BME280;64776;42.636;24.358;2022-12-29T04:42:20;90925.09;;;-0.43;83.30
76074;BME280;64776;42.636;24.358;2022-12-29T04:45:21;90925.84;;;-0.43;82.61
76074;BME280;64776;42.636;24.358;2022-12-29T04:48:22;90932.22;;;-0.40;82.92
76074;BME280;64776;42.636;24.358;2022-12-29T04:51:24;90928.09;;;-0.38;83.46
76074;BME280;64776;42.636;24.358;2022-12-29T04:54:25;90929.94;;;-0.38;83.03
76074;BME280;64776;42.636;24.358;2022-12-29T04:57:26;90935.53;;;-0.33;83.42
76074;BME280;64776;42.636;24.358;2022-12-29T05:00:27;90928.75;;;-0.23;83.40
76074;BME280;64776;42.636;24.358;2022-12-29T05:03:28;90931.78;;;-0.32;83.62
76074;BME280;64776;42.636;24.358;2022-12-29T05:06:30;90935.50;;;-0.26;83.38
76074;BME280;64776;42.636;24.358;2022-12-29T05:09:31;90930.25;;;-0.26;83.50
76074;BME280;64776;42.636;24.358;2022-12-29T05:12:32;90929.06;;;-0.18;83.44
76074;BME280;64776;42.636;24.358;2022-12-29T05:15:33;90928.75;;;-0.27;83.55
76074;BME280;64776;42.636;24.358;2022-12-29T05:18:34;90925.00;;;-0.26;83.02
76074;BME280;64776;42.636;24.358;2022-12-29T05:21:36;90922.75;;;-0.24;83.66
76074;BME280;64776;42.636;24.358;2022-12-29T05:24:37;90930.25;;;-0.26;83.61
76074;BME280;64776;42.636;24.358;2022-12-29T05:27:39;90932.16;;;-0.30;83.59
76074;BME280;64776;42.636;24.358;2022-12-29T05:30:39;90925.84;;;-0.43;83.01
76074;BME280;64776;42.636;24.358;2022-12-29T05:33:40;90931.84;;;-0.42;82.72
76074;BME280;64776;42.636;24.358;2022-12-29T05:36:42;90920.25;;;-0.45;83.29
76074;BME280;64776;42.636;24.358;2022-12-29T05:39:43;90927.44;;;-0.52;83.66
76074;BME280;64776;42.636;24.358;2022-12-29T05:42:44;90925.22;;;-0.61;83.52
76074;BME280;64776;42.636;24.358;2022-12-29T05:45:48;90934.94;;;-0.58;83.14
76074;BME280;64776;42.636;24.358;2022-12-29T05:48:48;90939.59;;;-0.90;83.88
76074;BME280;64776;42.636;24.358;2022-12-29T05:51:51;90929.09;;;-0.87;84.17
76074;BME280;64776;42.636;24.358;2022-12-29T05:54:52;90933.59;;;-0.87;84.31
76074;BME280;64776;42.636;24.358;2022-12-29T05:57:53;90941.44;;;-0.84;84.50
76074;BME280;64776;42.636;24.358;2022-12-29T06:00:54;90943.25;;;-0.73;83.86
76074;BME280;64776;42.636;24.358;2022-12-29T06:03:54;90945.47;;;-0.72;83.45
76074;BME280;64776;42.636;24.358;2022-12-29T06:06:57;90947.75;;;-0.74;84.06
76074;BME280;64776;42.636;24.358;2022-12-29T06:09:57;90944.03;;;-0.80;83.59
76074;BME280;64776;42.636;24.358;2022-12-29T06:12:58;90950.03;;;-0.83;84.03
76074;BME280;64776;42.636;24.358;2022-12-29T06:15:59;90962.41;;;-0.91;83.71
76074;BME280;64776;42.636;24.358;2022-12-29T06:19:00;90948.59;;;-0.91;83.90
76074;BME280;64776;42.636;24.358;2022-12-29T06:22:03;90963.88;;;-0.86;83.89
76074;BME280;64776;42.636;24.358;2022-12-29T06:25:04;90961.63;;;-0.84;83.89
76074;BME280;64776;42.636;24.358;2022-12-29T06:28:05;90959.34;;;-0.75;84.13
76074;BME280;64776;42.636;24.358;2022-12-29T06:31:08;90967.16;;;-0.68;83.84
76074;BME280;64776;42.636;24.358;2022-12-29T06:34:09;90968.34;;;-0.72;83.38
76074;BME280;64776;42.636;24.358;2022-12-29T06:37:11;90975.47;;;-0.80;83.76
76074;BME280;64776;42.636;24.358;2022-12-29T06:40:12;90983.72;;;-0.85;83.00
76074;BME280;64776;42.636;24.358;2022-12-29T06:43:13;90973.28;;;-0.92;84.05
76074;BME280;64776;42.636;24.358;2022-12-29T06:46:14;90984.13;;;-0.90;83.89
76074;BME280;64776;42.636;24.358;2022-12-29T06:49:15;90978.47;;;-0.82;83.54
76074;BME280;64776;42.636;24.358;2022-12-29T06:52:17;90972.50;;;-0.86;84.23
76074;BME280;64776;42.636;24.358;2022-12-29T06:55:18;90980.72;;;-0.76;84.75
76074;BME280;64776;42.636;24.358;2022-12-29T06:58:18;90966.41;;;-0.65;84.42
76074;BME280;64776;42.636;24.358;2022-12-29T07:01:19;90982.16;;;-0.65;84.02
76074;BME280;64776;42.636;24.358;2022-12-29T07:04:20;90984.00;;;-0.62;84.33
76074;BME280;64776;42.636;24.358;2022-12-29T07:07:22;90992.25;;;-0.60;83.91
76074;BME280;64776;42.636;24.358;2022-12-29T07:10:23;90977.97;;;-0.52;84.41
76074;BME280;64776;42.636;24.358;2022-12-29T07:13:24;90978.34;;;-0.53;85.00
76074;BME280;64776;42.636;24.358;2022-12-29T07:16:25;90977.59;;;-0.50;84.59
76074;BME280;64776;42.636;24.358;2022-12-29T07:19:26;90985.06;;;-0.49;84.73
76074;BME280;64776;42.636;24.358;2022-12-29T07:22:28;90977.16;;;-0.42;84.54
76074;BME280;64776;42.636;24.358;2022-12-29T07:25:28;90967.34;;;-0.31;84.47
76074;BME280;64776;42.636;24.358;2022-12-29T07:28:29;90975.16;;;-0.20;84.47
76074;BME280;64776;42.636;24.358;2022-12-29T07:31:31;90975.16;;;-0.17;84.55
76074;BME280;64776;42.636;24.358;2022-12-29T07:34:32;90975.88;;;-0.13;84.21
76074;BME280;64776;42.636;24.358;2022-12-29T07:37:34;90972.09;;;-0.12;84.22
76074;BME280;64776;42.636;24.358;2022-12-29T07:40:36;90977.34;;;-0.12;84.33
76074;BME280;64776;42.636;24.358;2022-12-29T07:43:36;90971.28;;;0.02;84.21
76074;BME280;64776;42.636;24.358;2022-12-29T07:46:37;90982.44;;;0.10;84.71
76074;BME280;64776;42.636;24.358;2022-12-29T07:49:38;90972.63;;;0.17;85.51
76074;BME280;64776;42.636;24.358;2022-12-29T07:52:40;90974.72;;;0.40;85.79
76074;BME280;64776;42.636;24.358;2022-12-29T07:55:41;90970.03;;;0.58;85.37
76074;BME280;64776;42.636;24.358;2022-12-29T07:58:42;90971.44;;;0.69;85.35
76074;BME280;64776;42.636;24.358;2022-12-29T08:01:42;90967.22;;;0.79;84.29
76074;BME280;64776;42.636;24.358;2022-12-29T08:04:43;90965.94;;;0.94;84.68
76074;BME280;64776;42.636;24.358;2022-12-29T08:07:46;90973.59;;;1.15;84.19
76074;BME280;64776;42.636;24.358;2022-12-29T08:10:47;90970.13;;;1.22;83.95
76074;BME280;64776;42.636;24.358;2022-12-29T08:13:48;90971.91;;;1.32;83.47
76074;BME280;64776;42.636;24.358;2022-12-29T08:16:48;90969.13;;;1.42;83.02
76074;BME280;64776;42.636;24.358;2022-12-29T08:19:49;90968.69;;;1.47;83.12
76074;BME280;64776;42.636;24.358;2022-12-29T08:22:52;90963.25;;;1.61;83.29
76074;BME280;64776;42.636;24.358;2022-12-29T08:25:57;90966.75;;;1.82;83.41
76074;BME280;64776;42.636;24.358;2022-12-29T08:28:58;90962.44;;;1.95;82.85
76074;BME280;64776;42.636;24.358;2022-12-29T08:31:59;90962.13;;;2.16;82.58
76074;BME280;64776;42.636;24.358;2022-12-29T08:34:59;90961.06;;;2.36;83.07
76074;BME280;64776;42.636;24.358;2022-12-29T08:38:02;90957.09;;;2.48;82.72
76074;BME280;64776;42.636;24.358;2022-12-29T08:41:02;90960.66;;;2.61;82.50
76074;BME280;64776;42.636;24.358;2022-12-29T08:44:04;90952.16;;;2.73;82.88
76074;BME280;64776;42.636;24.358;2022-12-29T08:47:04;90951.91;;;2.87;81.65
76074;BME280;64776;42.636;24.358;2022-12-29T08:50:06;90950.09;;;3.04;82.53
76074;BME280;64776;42.636;24.358;2022-12-29T08:53:09;90950.38;;;3.29;81.62
76074;BME280;64776;42.636;24.358;2022-12-29T08:56:09;90945.44;;;3.51;81.64
76074;BME280;64776;42.636;24.358;2022-12-29T08:59:10;90928.03;;;3.73;81.34
76074;BME280;64776;42.636;24.358;2022-12-29T09:02:11;90926.31;;;3.98;80.60
76074;BME280;64776;42.636;24.358;2022-12-29T09:05:12;90924.69;;;4.21;78.85
76074;BME280;64776;42.636;24.358;2022-12-29T09:08:14;90916.16;;;4.45;78.46
76074;BME280;64776;42.636;24.358;2022-12-29T09:11:18;90908.91;;;4.65;78.78
76074;BME280;64776;42.636;24.358;2022-12-29T09:14:19;90915.13;;;4.87;78.03
76074;BME280;64776;42.636;24.358;2022-12-29T09:17:20;90919.03;;;5.12;76.53
76074;BME280;64776;42.636;24.358;2022-12-29T09:20:21;90912.53;;;5.29;77.24
76074;BME280;64776;42.636;24.358;2022-12-29T09:23:24;90914.06;;;5.55;76.77
76074;BME280;64776;42.636;24.358;2022-12-29T09:26:24;90912.72;;;5.75;76.13
76074;BME280;64776;42.636;24.358;2022-12-29T09:29:25;90902.16;;;6.01;74.92
76074;BME280;64776;42.636;24.358;2022-12-29T09:32:26;90908.41;;;6.19;74.56
76074;BME280;64776;42.636;24.358;2022-12-29T09:35:27;90905.44;;;6.42;73.97
76074;BME280;64776;42.636;24.358;2022-12-29T09:38:30;90899.69;;;6.56;72.82
76074;BME280;64776;42.636;24.358;2022-12-29T09:41:36;90897.50;;;6.77;73.55
76074;BME280;64776;42.636;24.358;2022-12-29T09:44:51;90899.16;;;6.96;71.92
76074;BME280;64776;42.636;24.358;2022-12-29T09:47:55;90889.16;;;7.21;72.03
76074;BME280;64776;42.636;24.358;2022-12-29T09:50:59;90889.72;;;7.38;70.49
76074;BME280;64776;42.636;24.358;2022-12-29T09:54:09;90888.28;;;7.46;70.52
76074;BME280;64776;42.636;24.358;2022-12-29T09:57:18;90875.91;;;7.74;70.20
76074;BME280;64776;42.636;24.358;2022-12-29T10:00:22;90875.59;;;8.02;68.49
76074;BME280;64776;42.636;24.358;2022-12-29T10:03:26;90870.94;;;8.15;68.52
76074;BME280;64776;42.636;24.358;2022-12-29T10:06:32;90863.91;;;8.31;68.29
76074;BME280;64776;42.636;24.358;2022-12-29T10:09:41;90859.53;;;8.46;66.79
76074;BME280;64776;42.636;24.358;2022-12-29T10:13:00;90854.81;;;8.68;66.74
76074;BME280;64776;42.636;24.358;2022-12-29T10:16:06;90858.41;;;8.92;65.77
76074;BME280;64776;42.636;24.358;2022-12-29T10:19:27;90851.91;;;9.02;64.36
76074;BME280;64776;42.636;24.358;2022-12-29T10:22:38;90858.13;;;9.08;64.59
76074;BME280;64776;42.636;24.358;2022-12-29T10:25:43;90851.91;;;9.20;64.04
76074;BME280;64776;42.636;24.358;2022-12-29T10:28:48;90855.91;;;9.25;63.74
76074;BME280;64776;42.636;24.358;2022-12-29T10:31:56;90852.66;;;9.21;63.63
76074;BME280;64776;42.636;24.358;2022-12-29T10:35:03;90843.91;;;8.93;64.86
76074;BME280;64776;42.636;24.358;2022-12-29T10:38:14;90838.56;;;8.66;65.54
76074;BME280;64776;42.636;24.358;2022-12-29T10:41:24;90825.28;;;9.02;64.40
76074;BME280;64776;42.636;24.358;2022-12-29T10:44:29;90824.97;;;9.09;62.47
76074;BME280;64776;42.636;24.358;2022-12-29T10:47:35;90824.97;;;9.18;63.88
76074;BME280;64776;42.636;24.358;2022-12-29T10:50:38;90828.38;;;9.10;62.84
76074;BME280;64776;42.636;24.358;2022-12-29T10:53:42;90821.59;;;8.81;62.92
76074;BME280;64776;42.636;24.358;2022-12-29T10:56:49;90829.41;;;9.21;61.03
76074;BME280;64776;42.636;24.358;2022-12-29T10:59:51;90822.28;;;9.45;61.58
76074;BME280;64776;42.636;24.358;2022-12-29T11:03:15;90819.00;;;9.50;58.74
76074;BME280;64776;42.636;24.358;2022-12-29T11:06:24;90819.00;;;9.59;57.99
76074;BME280;64776;42.636;24.358;2022-12-29T11:09:28;90818.75;;;9.30;58.50
76074;BME280;64776;42.636;24.358;2022-12-29T11:12:31;90815.50;;;9.17;58.63
76074;BME280;64776;42.636;24.358;2022-12-29T11:15:39;90817.28;;;9.20;58.67
76074;BME280;64776;42.636;24.358;2022-12-29T11:18:40;90812.69;;;9.30;58.87
76074;BME280;64776;42.636;24.358;2022-12-29T11:21:46;90811.97;;;9.29;57.79
76074;BME280;64776;42.636;24.358;2022-12-29T11:24:48;90808.56;;;9.20;57.10
76074;BME280;64776;42.636;24.358;2022-12-29T11:27:57;90803.69;;;9.18;58.15
76074;BME280;64776;42.636;24.358;2022-12-29T11:31:00;90808.59;;;9.11;60.81
76074;BME280;64776;42.636;24.358;2022-12-29T11:34:06;90811.66;;;8.64;61.71
76074;BME280;64776;42.636;24.358;2022-12-29T11:37:12;90804.28;;;8.59;62.49
76074;BME280;64776;42.636;24.358;2022-12-29T11:40:17;90804.28;;;8.41;60.90
76074;BME280;64776;42.636;24.358;2022-12-29T11:43:23;90807.50;;;8.36;61.89
76074;BME280;64776;42.636;24.358;2022-12-29T11:46:29;90805.75;;;8.42;61.36
76074;BME280;64776;42.636;24.358;2022-12-29T11:49:32;90806.94;;;8.41;59.70
76074;BME280;64776;42.636;24.358;2022-12-29T11:52:35;90809.16;;;8.78;59.60
76074;BME280;64776;42.636;24.358;2022-12-29T11:55:36;90800.47;;;8.96;58.50
76074;BME280;64776;42.636;24.358;2022-12-29T11:58:39;90810.94;;;9.18;58.64
76074;BME280;64776;42.636;24.358;2022-12-29T12:01:40;90809.44;;;8.98;57.46
76074;BME280;64776;42.636;24.358;2022-12-29T12:04:41;90810.47;;;9.28;57.68
76074;BME280;64776;42.636;24.358;2022-12-29T12:07:44;90810.94;;;9.18;56.75
76074;BME280;64776;42.636;24.358;2022-12-29T12:10:48;90821.00;;;9.05;57.77
76074;BME280;64776;42.636;24.358;2022-12-29T12:13:59;90814.91;;;9.13;57.26
76074;BME280;64776;42.636;24.358;2022-12-29T12:17:05;90813.63;;;9.09;57.95
76074;BME280;64776;42.636;24.358;2022-12-29T12:20:16;90806.78;;;9.17;57.65
76074;BME280;64776;42.636;24.358;2022-12-29T12:23:25;90804.00;;;8.93;57.75
76074;BME280;64776;42.636;24.358;2022-12-29T12:26:32;90806.66;;;8.75;57.43
76074;BME280;64776;42.636;24.358;2022-12-29T12:29:41;90798.81;;;9.08;57.51
76074;BME280;64776;42.636;24.358;2022-12-29T12:32:48;90795.97;;;9.29;55.57
76074;BME280;64776;42.636;24.358;2022-12-29T12:35:57;90791.72;;;9.05;56.93
76074;BME280;64776;42.636;24.358;2022-12-29T12:39:02;90791.88;;;9.01;57.05
76074;BME280;64776;42.636;24.358;2022-12-29T12:42:17;90799.56;;;8.99;58.12
76074;BME280;64776;42.636;24.358;2022-12-29T12:45:36;90797.47;;;8.76;57.96
76074;BME280;64776;42.636;24.358;2022-12-29T12:48:56;90796.63;;;8.79;58.74
76074;BME280;64776;42.636;24.358;2022-12-29T12:52:08;90803.09;;;9.23;57.06
76074;BME280;64776;42.636;24.358;2022-12-29T12:55:18;90796.91;;;8.90;58.96
76074;BME280;64776;42.636;24.358;2022-12-29T12:58:30;90799.28;;;8.79;59.48
76074;BME280;64776;42.636;24.358;2022-12-29T13:01:40;90806.53;;;8.69;59.11
76074;BME280;64776;42.636;24.358;2022-12-29T13:05:02;90810.97;;;8.05;61.50
76074;BME280;64776;42.636;24.358;2022-12-29T13:11:48;90814.72;;;7.86;63.69
76074;BME280;64776;42.636;24.358;2022-12-29T13:15:03;90820.19;;;7.83;64.19
76074;BME280;64776;42.636;24.358;2022-12-29T13:18:16;90822.38;;;8.24;63.05
76074;BME280;64776;42.636;24.358;2022-12-29T13:21:31;90813.75;;;8.69;60.68
76074;BME280;64776;42.636;24.358;2022-12-29T13:24:42;90815.22;;;8.79;60.27
76074;BME280;64776;42.636;24.358;2022-12-29T13:27:52;90808.88;;;8.94;60.06
76074;BME280;64776;42.636;24.358;2022-12-29T13:31:00;90818.78;;;8.94;58.46
76074;BME280;64776;42.636;24.358;2022-12-29T13:34:13;90814.66;;;8.75;58.30
76074;BME280;64776;42.636;24.358;2022-12-29T13:37:20;90818.47;;;9.01;58.28
76074;BME280;64776;42.636;24.358;2022-12-29T13:40:28;90809.75;;;8.46;59.04
76074;BME280;64776;42.636;24.358;2022-12-29T13:43:34;90822.75;;;8.04;60.73
76074;BME280;64776;42.636;24.358;2022-12-29T13:46:39;90821.00;;;8.01;59.62
76074;BME280;64776;42.636;24.358;2022-12-29T13:49:43;90821.81;;;7.89;60.40
76074;BME280;64776;42.636;24.358;2022-12-29T13:52:49;90820.78;;;7.87;61.20
76074;BME280;64776;42.636;24.358;2022-12-29T13:55:56;90821.44;;;7.69;60.90
76074;BME280;64776;42.636;24.358;2022-12-29T13:59:05;90827.72;;;7.23;62.57
76074;BME280;64776;42.636;24.358;2022-12-29T14:02:26;90827.88;;;7.07;62.55
76074;BME280;64776;42.636;24.358;2022-12-29T14:05:33;90836.94;;;6.97;63.11
76074;BME280;64776;42.636;24.358;2022-12-29T14:08:34;90836.56;;;6.64;64.22
76074;BME280;64776;42.636;24.358;2022-12-29T14:11:37;90839.72;;;6.72;63.94
76074;BME280;64776;42.636;24.358;2022-12-29T14:14:41;90841.34;;;6.56;64.52
76074;BME280;64776;42.636;24.358;2022-12-29T14:17:43;90853.13;;;6.55;64.27
76074;BME280;64776;42.636;24.358;2022-12-29T14:20:53;90848.59;;;6.43;65.02
76074;BME280;64776;42.636;24.358;2022-12-29T14:27:53;90851.53;;;5.86;66.67
76074;BME280;64776;42.636;24.358;2022-12-29T14:30:55;90855.84;;;5.67;67.86
76074;BME280;64776;42.636;24.358;2022-12-29T14:34:26;90852.13;;;5.52;68.55
76074;BME280;64776;42.636;24.358;2022-12-29T14:37:30;90859.41;;;5.36;68.85
76074;BME280;64776;42.636;24.358;2022-12-29T14:40:31;90861.25;;;5.64;67.96
76074;BME280;64776;42.636;24.358;2022-12-29T14:43:32;90851.38;;;5.77;67.84
76074;BME280;64776;42.636;24.358;2022-12-29T14:46:44;90855.84;;;5.80;67.76
76074;BME280;64776;42.636;24.358;2022-12-29T14:49:46;90861.34;;;5.73;67.90
76074;BME280;64776;42.636;24.358;2022-12-29T14:52:51;90853.41;;;5.60;67.47
76074;BME280;64776;42.636;24.358;2022-12-29T14:55:55;90858.47;;;5.55;67.68
76074;BME280;64776;42.636;24.358;2022-12-29T14:58:57;90862.91;;;5.33;68.99
76074;BME280;64776;42.636;24.358;2022-12-29T15:02:01;90861.59;;;5.12;69.37
76074;BME280;64776;42.636;24.358;2022-12-29T15:05:05;90860.44;;;4.84;70.83
76074;BME280;64776;42.636;24.358;2022-12-29T15:08:09;90866.41;;;4.72;71.50
76074;BME280;64776;42.636;24.358;2022-12-29T15:11:13;90859.22;;;4.44;70.82
76074;BME280;64776;42.636;24.358;2022-12-29T15:14:32;90865.31;;;4.41;72.22
76074;BME280;64776;42.636;24.358;2022-12-29T15:17:34;90864.78;;;4.18;72.78
76074;BME280;64776;42.636;24.358;2022-12-29T15:20:35;90864.13;;;4.13;73.37
76074;BME280;64776;42.636;24.358;2022-12-29T15:23:37;90869.41;;;3.97;73.40
76074;BME280;64776;42.636;24.358;2022-12-29T15:26:39;90869.41;;;3.97;73.29
76074;BME280;64776;42.636;24.358;2022-12-29T15:29:41;90872.34;;;3.83;73.54
76074;BME280;64776;42.636;24.358;2022-12-29T15:32:43;90869.38;;;3.81;74.48
76074;BME280;64776;42.636;24.358;2022-12-29T15:35:49;90871.25;;;3.65;75.01
76074;BME280;64776;42.636;24.358;2022-12-29T15:38:52;90872.84;;;3.78;74.15
76074;BME280;64776;42.636;24.358;2022-12-29T15:41:56;90865.03;;;3.91;74.44
76074;BME280;64776;42.636;24.358;2022-12-29T15:44:57;90857.59;;;4.02;74.15
76074;BME280;64776;42.636;24.358;2022-12-29T15:47:58;90871.78;;;3.92;73.75
76074;BME280;64776;42.636;24.358;2022-12-29T15:51:00;90869.00;;;3.83;73.54
76074;BME280;64776;42.636;24.358;2022-12-29T15:54:02;90869.88;;;3.76;74.75
76074;BME280;64776;42.636;24.358;2022-12-29T15:57:04;90869.97;;;3.73;74.23
76074;BME280;64776;42.636;24.358;2022-12-29T16:00:21;90867.34;;;3.73;75.38
76074;BME280;64776;42.636;24.358;2022-12-29T16:03:25;90882.56;;;3.29;75.65
76074;BME280;64776;42.636;24.358;2022-12-29T16:06:29;90879.31;;;3.42;75.32
76074;BME280;64776;42.636;24.358;2022-12-29T16:09:33;90872.47;;;3.44;75.68
76074;BME280;64776;42.636;24.358;2022-12-29T16:12:36;90876.72;;;3.38;75.44
76074;BME280;64776;42.636;24.358;2022-12-29T16:15:37;90877.97;;;3.34;74.56
76074;BME280;64776;42.636;24.358;2022-12-29T16:18:38;90881.63;;;3.20;74.79
76074;BME280;64776;42.636;24.358;2022-12-29T16:21:39;90880.53;;;3.17;75.44
76074;BME280;64776;42.636;24.358;2022-12-29T16:24:42;90891.84;;;3.18;74.86
76074;BME280;64776;42.636;24.358;2022-12-29T16:27:43;90893.63;;;3.05;75.58